Terminal Aerodrome Forecast
Issued by NWS

Home | Current Version | Previous Version | Text Only | Print | Product List | Glossary On
Versions: 1 2 3 4 5 6 7 8 9 10 11 12 13 14 15 16 17 18 19 20
000
FTUS43 KABR 241200 AAA
TAFATY
TAF AMD
KATY 241250Z 2413/2512 14007KT P6SM SCT090 SCT150
     FM241500 16015G25KT P6SM SCT090 BKN250
     FM250700 15011KT P6SM SKC=

USA.gov is the U.S. government's official web portal to all federal, state and local government web resources and services.